Terminal Aerodrome Forecast
Issued by NWS Newport/Morehead City, NC

Home | Current Version | Previous Version | Text Only | Print | Product List | Glossary On
Versions: 1 2 3 4 5 6 7 8 9 10 11 12 13 14
000
FTUS42 KMHX 241100
TAFEWN
TAF
KEWN 241120Z 2412/2512 04008G15KT P6SM SCT050
     FM241400 05012G20KT P6SM BKN050
     FM250000 03007KT P6SM SCT250=

USA.gov is the U.S. government's official web portal to all federal, state and local government web resources and services.